createdAt,value
2019-05-18T00:02:43.382Z,6
2019-05-18T00:07:45.821Z,6
2019-05-18T00:12:48.286Z,6
2019-05-18T00:17:50.703Z,6
2019-05-18T00:32:58.058Z,6
2019-05-18T00:38:00.472Z,7
2019-05-18T00:43:02.907Z,7
2019-05-18T00:48:05.357Z,6
2019-05-18T00:53:07.813Z,7
2019-05-18T00:58:10.221Z,7
2019-05-18T01:03:12.701Z,7
2019-05-18T01:08:15.124Z,7
2019-05-18T01:13:17.550Z,7
2019-05-18T01:18:19.996Z,7
2019-05-18T01:23:22.440Z,7
2019-05-18T01:28:24.922Z,7
2019-05-18T01:33:27.406Z,7
2019-05-18T01:38:29.763Z,9
2019-05-18T01:43:32.287Z,7
2019-05-18T01:48:34.642Z,9
2019-05-18T01:53:37.123Z,11
2019-05-18T01:58:39.515Z,10
2019-05-18T02:03:41.959Z,12
2019-05-18T02:08:44.420Z,12
2019-05-18T02:13:46.844Z,12
2019-05-18T02:18:49.274Z,13
2019-05-18T02:23:51.739Z,14
2019-05-18T02:28:54.151Z,13
2019-05-18T02:33:56.669Z,14
2019-05-18T02:38:59.068Z,16
2019-05-18T02:44:01.501Z,15
2019-05-18T02:49:03.975Z,15
2019-05-18T02:54:06.521Z,14
2019-05-18T02:59:08.810Z,15
2019-05-18T03:04:11.236Z,14
2019-05-18T03:09:13.672Z,14
2019-05-18T03:14:16.140Z,15
2019-05-18T03:19:18.596Z,14
2019-05-18T03:24:21.029Z,14
2019-05-18T03:29:23.433Z,15
2019-05-18T03:34:25.927Z,15
2019-05-18T03:39:28.353Z,16
2019-05-18T03:44:30.761Z,15
2019-05-18T03:49:33.332Z,15
2019-05-18T03:54:35.638Z,17
2019-05-18T03:59:38.104Z,17
2019-05-18T04:04:40.538Z,16
2019-05-18T04:09:42.961Z,15
2019-05-18T04:14:45.434Z,14
2019-05-18T04:19:47.842Z,14
2019-05-18T04:24:50.360Z,14
2019-05-18T04:29:52.809Z,15
2019-05-18T04:34:55.168Z,13
2019-05-18T04:39:57.627Z,14
2019-05-18T04:45:00.192Z,15
2019-05-18T04:50:05.519Z,14
2019-05-18T04:55:04.986Z,13
2019-05-18T05:00:07.415Z,14
2019-05-18T05:05:09.985Z,14
2019-05-18T05:10:12.261Z,13
2019-05-18T05:15:14.687Z,13
2019-05-18T05:20:19.970Z,13
2019-05-18T05:25:19.616Z,14
2019-05-18T05:30:22.040Z,13
2019-05-18T05:35:24.575Z,12
2019-05-18T05:40:26.897Z,12
2019-05-18T05:45:29.343Z,12
2019-05-18T05:50:35.658Z,11
2019-05-18T05:55:34.201Z,9
2019-05-18T06:00:36.711Z,10
2019-05-18T06:05:39.176Z,9
2019-05-18T06:10:41.566Z,10
2019-05-18T06:15:43.959Z,9
2019-05-18T06:20:51.268Z,10
2019-05-18T06:25:48.866Z,10
2019-05-18T06:30:51.288Z,9
2019-05-18T06:35:53.886Z,9
2019-05-18T06:40:56.169Z,9
2019-05-18T06:45:58.621Z,10
2019-05-18T06:51:06.995Z,8
2019-05-18T06:56:03.514Z,9
2019-05-18T07:01:05.928Z,9
2019-05-18T07:06:08.459Z,9
2019-05-18T07:11:10.798Z,8
2019-05-18T07:16:13.244Z,9
2019-05-18T07:21:22.105Z,9
2019-05-18T07:26:18.137Z,8
2019-05-18T07:31:20.569Z,8
2019-05-18T07:36:22.996Z,8
2019-05-18T07:41:25.516Z,8
2019-05-18T07:46:27.899Z,9
2019-05-18T07:51:36.805Z,9
2019-05-18T07:56:32.776Z,8
2019-05-18T08:01:35.284Z,9
2019-05-18T08:06:37.685Z,9
2019-05-18T08:11:40.155Z,9
2019-05-18T08:16:42.534Z,11
2019-05-18T08:21:53.019Z,11
2019-05-18T08:26:47.566Z,11
2019-05-18T08:31:49.889Z,11
2019-05-18T08:36:52.346Z,13
2019-05-18T08:41:54.736Z,12
2019-05-18T08:46:57.206Z,11
2019-05-18T08:52:07.749Z,14
2019-05-18T08:57:02.088Z,13
2019-05-18T09:02:04.537Z,12
2019-05-18T09:07:06.998Z,11
2019-05-18T09:12:09.392Z,11
2019-05-18T09:17:11.870Z,12
2019-05-18T09:22:22.706Z,12
2019-05-18T09:27:16.706Z,12
2019-05-18T09:32:19.148Z,13
2019-05-18T09:37:21.700Z,12
2019-05-18T09:42:24.017Z,13
2019-05-18T09:47:26.488Z,13
2019-05-18T09:52:43.928Z,14
2019-05-18T09:57:31.369Z,13
2019-05-18T10:02:33.837Z,15
2019-05-18T10:07:36.238Z,15
2019-05-18T10:12:38.771Z,13
2019-05-18T10:17:41.209Z,13
2019-05-18T10:22:53.774Z,14
2019-05-18T10:27:46.033Z,15
2019-05-18T10:32:48.436Z,16
2019-05-18T10:37:50.983Z,15
2019-05-18T10:42:53.364Z,14
2019-05-18T10:47:55.776Z,12
2019-05-18T10:52:58.233Z,13
2019-05-18T10:58:00.634Z,13
2019-05-18T11:03:03.192Z,12
2019-05-18T11:08:05.537Z,13
2019-05-18T11:13:08.003Z,12
2019-05-18T11:18:10.421Z,12
2019-05-18T11:23:12.878Z,10
2019-05-18T11:28:15.402Z,11
2019-05-18T11:33:17.735Z,12
2019-05-18T11:38:20.180Z,12
2019-05-18T11:43:22.618Z,13
2019-05-18T11:48:25.044Z,14
2019-05-18T11:53:27.472Z,16
2019-05-18T11:58:29.922Z,16
2019-05-18T12:03:32.495Z,14
2019-05-18T12:08:34.822Z,16
2019-05-18T12:13:37.252Z,12
2019-05-18T12:18:39.694Z,12
2019-05-18T12:23:42.252Z,12
2019-05-18T12:28:44.678Z,13
2019-05-18T12:33:47.013Z,13
2019-05-18T12:38:49.448Z,14
2019-05-18T12:43:51.884Z,10
2019-05-18T12:48:54.348Z,10
2019-05-18T12:53:56.766Z,10
2019-05-18T12:58:59.210Z,9
2019-05-18T13:04:01.680Z,9
2019-05-18T13:09:04.107Z,11
2019-05-18T13:14:06.641Z,8
2019-05-18T13:19:08.989Z,9
2019-05-18T13:24:11.433Z,8
2019-05-18T13:29:13.846Z,7
2019-05-18T13:34:16.353Z,6
2019-05-18T13:39:18.821Z,5
2019-05-18T13:44:21.191Z,5
2019-05-18T13:49:23.663Z,4
2019-05-18T13:54:26.255Z,5
2019-05-18T13:59:28.518Z,6
2019-05-18T14:09:33.601Z,5
2019-05-18T14:14:35.914Z,6
2019-05-18T14:19:38.375Z,5
2019-05-18T14:24:40.757Z,4
2019-05-18T14:29:43.231Z,7
2019-05-18T14:34:45.614Z,6
2019-05-18T14:39:48.056Z,6
2019-05-18T14:44:50.478Z,5
2019-05-18T14:49:52.916Z,5
2019-05-18T14:54:55.510Z,7
2019-05-18T15:00:01.433Z,6
2019-05-18T15:05:00.303Z,6
2019-05-18T15:10:02.744Z,6
2019-05-18T15:15:05.149Z,5
2019-05-18T15:20:07.650Z,6
2019-05-18T15:25:10.072Z,5
2019-05-18T15:30:12.459Z,6
2019-05-18T15:35:14.914Z,6
2019-05-18T15:40:17.355Z,4
2019-05-18T15:45:19.785Z,5
2019-05-18T15:50:22.359Z,5
2019-05-18T15:55:24.678Z,5
2019-05-18T16:00:27.144Z,5
2019-05-18T16:05:29.556Z,5
2019-05-18T16:10:32.022Z,5
2019-05-18T16:15:34.440Z,6
2019-05-18T16:20:36.901Z,6
2019-05-18T16:25:39.326Z,6
2019-05-18T16:30:41.762Z,6
2019-05-18T16:35:44.234Z,5
2019-05-18T16:40:46.643Z,5
2019-05-18T16:45:49.107Z,4
2019-05-18T16:50:51.565Z,5
2019-05-18T16:55:54.075Z,6
2019-05-18T17:00:56.424Z,6
2019-05-18T17:05:58.905Z,4
2019-05-18T17:11:01.315Z,5
2019-05-18T17:16:03.753Z,4
2019-05-18T17:21:06.190Z,5
2019-05-18T17:26:08.656Z,5
2019-05-18T17:31:11.089Z,5
2019-05-18T17:36:13.529Z,6
2019-05-18T17:41:16.038Z,5
2019-05-18T17:46:18.431Z,6
2019-05-18T17:51:20.870Z,6
2019-05-18T17:56:23.306Z,6
2019-05-18T18:01:25.731Z,6
2019-05-18T18:06:28.154Z,7
2019-05-18T18:11:30.595Z,6
2019-05-18T18:16:33.048Z,7
2019-05-18T18:21:35.524Z,7
2019-05-18T18:26:37.966Z,7
2019-05-18T18:31:40.352Z,8
2019-05-18T18:36:42.811Z,9
2019-05-18T18:41:45.263Z,9
2019-05-18T18:46:47.721Z,9
2019-05-18T18:51:50.188Z,8
2019-05-18T18:56:52.626Z,9
2019-05-18T19:01:55.021Z,8
2019-05-18T19:06:57.470Z,9
2019-05-18T19:11:59.898Z,9
2019-05-18T19:17:02.367Z,8
2019-05-18T19:22:04.788Z,10
2019-05-18T19:27:07.230Z,9
2019-05-18T19:32:09.652Z,9
2019-05-18T19:37:12.128Z,10
2019-05-18T19:42:14.546Z,10
2019-05-18T19:47:16.984Z,10
2019-05-18T19:52:19.427Z,10
2019-05-18T19:57:21.931Z,10
2019-05-18T20:02:24.296Z,13
2019-05-18T20:07:26.751Z,13
2019-05-18T20:12:29.191Z,14
2019-05-18T20:17:31.617Z,13
2019-05-18T20:22:34.073Z,14
2019-05-18T20:27:36.592Z,14
2019-05-18T20:32:39.009Z,16
2019-05-18T20:37:41.472Z,15
2019-05-18T20:42:43.811Z,14
2019-05-18T20:47:46.367Z,15
2019-05-18T20:52:48.714Z,17
2019-05-18T20:57:51.176Z,16
2019-05-18T21:02:53.582Z,16
2019-05-18T21:07:56.053Z,17
2019-05-18T21:12:58.454Z,17
2019-05-18T21:18:01.046Z,16
2019-05-18T21:23:03.403Z,17
2019-05-18T21:28:05.808Z,18
2019-05-18T21:33:08.265Z,17
2019-05-18T21:38:10.678Z,17
2019-05-18T21:43:13.107Z,17
2019-05-18T21:48:15.587Z,17
2019-05-18T21:53:18.021Z,17
2019-05-18T21:58:20.424Z,16
2019-05-18T22:03:22.923Z,16
2019-05-18T22:08:25.337Z,16
2019-05-18T22:13:27.777Z,14
2019-05-18T22:18:30.196Z,17
2019-05-18T22:23:32.648Z,16
2019-05-18T22:28:35.102Z,16
2019-05-18T22:33:37.505Z,17
2019-05-18T22:38:39.980Z,18
2019-05-18T22:43:42.456Z,18
2019-05-18T22:48:44.838Z,18
2019-05-18T22:53:47.381Z,19
2019-05-18T22:58:49.736Z,19
2019-05-18T23:03:52.289Z,18
2019-05-18T23:08:54.747Z,18
2019-05-18T23:13:57.053Z,19
2019-05-18T23:18:59.479Z,17
2019-05-18T23:29:04.358Z,17
2019-05-18T23:34:06.873Z,18
2019-05-18T23:39:09.284Z,19
2019-05-18T23:44:11.754Z,19
2019-05-18T23:49:14.131Z,18
2019-05-18T23:54:16.559Z,19
2019-05-18T23:59:19.027Z,19
